createdAt,value
2019-05-02T00:01:40.624Z,12.50
2019-05-02T00:03:44.631Z,12.50
2019-05-02T00:05:48.741Z,12.50
2019-05-02T00:07:53.912Z,12.50
2019-05-02T00:09:58.087Z,12.50
2019-05-02T00:12:02.619Z,12.50
2019-05-02T00:14:07.623Z,12.40
2019-05-02T00:16:14.026Z,12.40
2019-05-02T00:18:17.586Z,12.40
2019-05-02T00:20:25.986Z,12.40
2019-05-02T00:22:27.341Z,12.40
2019-05-02T00:24:34.011Z,12.40
2019-05-02T00:26:36.874Z,12.40
2019-05-02T00:28:43.006Z,12.30
2019-05-02T00:30:46.786Z,12.30
2019-05-02T00:32:53.128Z,12.30
2019-05-02T00:34:56.622Z,12.20
2019-05-02T00:37:00.581Z,12.20
2019-05-02T00:39:09.558Z,12.20
2019-05-02T00:41:16.634Z,12.20
2019-05-02T00:43:20.488Z,12.20
2019-05-02T00:45:25.916Z,12.20
2019-05-02T00:47:36.225Z,12.20
2019-05-02T00:49:40.139Z,12.20
2019-05-02T00:51:44.125Z,12.10
2019-05-02T00:53:49.470Z,12.10
2019-05-02T00:55:53.758Z,12.10
2019-05-02T00:57:57.704Z,12.10
2019-05-02T01:00:01.666Z,12.00
2019-05-02T01:02:08.628Z,12.00
2019-05-02T01:04:14.194Z,12.00
2019-05-02T01:06:18.183Z,12.00
2019-05-02T01:08:22.052Z,12.00
2019-05-02T01:10:26.318Z,12.00
2019-05-02T01:12:31.851Z,12.00
2019-05-02T01:14:37.411Z,11.90
2019-05-02T01:16:41.245Z,11.90
2019-05-02T01:18:45.246Z,11.90
2019-05-02T01:20:49.106Z,11.90
2019-05-02T01:22:53.656Z,11.90
2019-05-02T01:24:57.736Z,11.90
2019-05-02T01:27:20.431Z,11.80
2019-05-02T01:29:31.761Z,11.80
2019-05-02T01:31:37.412Z,11.80
2019-05-02T01:33:45.561Z,11.80
2019-05-02T01:35:51.069Z,11.80
2019-05-02T01:38:13.100Z,11.80
2019-05-02T01:40:17.814Z,11.80
2019-05-02T01:42:22.467Z,11.70
2019-05-02T01:44:26.304Z,11.70
2019-05-02T01:46:30.300Z,11.70
2019-05-02T01:48:34.879Z,11.70
2019-05-02T01:50:41.435Z,11.60
2019-05-02T01:52:45.387Z,11.60
2019-05-02T01:54:49.360Z,11.60
2019-05-02T01:56:53.195Z,11.50
2019-05-02T01:58:57.827Z,11.60
2019-05-02T02:01:02.918Z,11.50
2019-05-02T02:03:09.164Z,11.40
2019-05-02T02:05:12.675Z,11.40
2019-05-02T02:07:19.939Z,11.40
2019-05-02T02:09:22.329Z,11.40
2019-05-02T02:11:28.445Z,11.30
2019-05-02T02:13:36.590Z,11.30
2019-05-02T02:15:37.610Z,11.30
2019-05-02T02:17:41.536Z,11.30
2019-05-02T02:19:47.043Z,11.30
2019-05-02T02:22:02.677Z,11.30
2019-05-02T02:24:21.136Z,11.20
2019-05-02T02:26:25.344Z,11.30
2019-05-02T02:28:32.095Z,11.20
2019-05-02T02:30:37.337Z,11.20
2019-05-02T02:32:41.434Z,11.20
2019-05-02T02:34:45.437Z,11.20
2019-05-02T02:36:51.342Z,11.20
2019-05-02T02:38:55.299Z,11.10
2019-05-02T02:40:59.158Z,11.10
2019-05-02T02:43:12.993Z,11.10
2019-05-02T02:45:18.807Z,11.10
2019-05-02T02:47:21.580Z,11.10
2019-05-02T02:49:25.479Z,11.10
2019-05-02T02:51:29.407Z,11.10
2019-05-02T02:53:33.387Z,11.10
2019-05-02T02:55:37.272Z,11.10
2019-05-02T02:57:41.308Z,11.00
2019-05-02T02:59:45.146Z,11.10
2019-05-02T03:01:49.223Z,11.10
2019-05-02T03:03:53.252Z,11.10
2019-05-02T03:06:05.281Z,11.10
2019-05-02T03:08:05.500Z,11.10
2019-05-02T03:10:11.799Z,11.10
2019-05-02T03:12:23.327Z,11.10
2019-05-02T03:14:28.826Z,11.10
2019-05-02T03:16:34.477Z,11.20
2019-05-02T03:18:40.569Z,11.10
2019-05-02T03:20:44.022Z,11.20
2019-05-02T03:22:48.167Z,11.20
2019-05-02T03:24:52.060Z,11.20
2019-05-02T03:26:58.387Z,11.20
2019-05-02T03:29:01.736Z,11.20
2019-05-02T03:31:21.855Z,11.20
2019-05-02T03:33:12.513Z,11.20
2019-05-02T03:35:18.677Z,11.20
2019-05-02T03:37:22.841Z,11.20
2019-05-02T03:39:26.749Z,11.20
2019-05-02T03:41:31.152Z,11.20
2019-05-02T03:43:35.075Z,11.20
2019-05-02T03:45:40.805Z,11.20
2019-05-02T03:47:46.569Z,11.20
2019-05-02T03:49:52.246Z,11.20
2019-05-02T03:52:02.826Z,11.20
2019-05-02T03:54:07.499Z,11.20
2019-05-02T03:56:11.370Z,11.10
2019-05-02T03:58:16.282Z,11.20
2019-05-02T04:00:20.813Z,11.20
2019-05-02T04:02:25.184Z,11.20
2019-05-02T04:04:30.316Z,11.20
2019-05-02T04:06:34.309Z,11.20
2019-05-02T04:08:39.751Z,11.20
2019-05-02T04:10:52.450Z,11.20
2019-05-02T04:12:58.239Z,11.20
2019-05-02T04:14:58.334Z,11.20
2019-05-02T04:17:02.171Z,11.20
2019-05-02T04:19:06.169Z,11.30
2019-05-02T04:21:13.320Z,11.30
2019-05-02T04:23:21.251Z,11.30
2019-05-02T04:25:27.900Z,11.40
2019-05-02T04:27:34.092Z,11.40
2019-05-02T04:29:38.076Z,11.40
2019-05-02T04:31:42.265Z,11.50
2019-05-02T04:33:46.276Z,11.50
2019-05-02T04:35:50.283Z,11.50
2019-05-02T04:37:54.204Z,11.50
2019-05-02T04:40:01.735Z,11.50
2019-05-02T04:42:13.003Z,11.60
2019-05-02T04:44:09.321Z,11.70
2019-05-02T04:46:21.900Z,11.70
2019-05-02T04:48:18.732Z,11.80
2019-05-02T04:50:25.277Z,11.80
2019-05-02T04:52:28.798Z,11.80
2019-05-02T04:54:33.315Z,11.80
2019-05-02T04:56:49.536Z,11.90
2019-05-02T04:58:45.665Z,11.90
2019-05-02T05:00:54.086Z,12.00
2019-05-02T05:02:57.886Z,12.00
2019-05-02T05:05:00.973Z,12.10
2019-05-02T05:07:04.929Z,12.10
2019-05-02T05:09:10.400Z,12.20
2019-05-02T05:11:20.878Z,12.20
2019-05-02T05:13:23.271Z,12.20
2019-05-02T05:15:37.039Z,12.20
2019-05-02T05:17:34.043Z,12.10
2019-05-02T05:19:37.373Z,12.10
2019-05-02T05:21:41.596Z,12.10
2019-05-02T05:23:59.573Z,12.10
2019-05-02T05:26:04.711Z,12.10
2019-05-02T05:28:09.064Z,12.20
2019-05-02T05:30:15.628Z,12.20
2019-05-02T05:32:22.112Z,12.20
2019-05-02T05:34:28.508Z,12.20
2019-05-02T05:36:33.952Z,12.20
2019-05-02T05:38:40.477Z,12.20
2019-05-02T05:40:42.855Z,12.30
2019-05-02T05:42:48.098Z,12.30
2019-05-02T05:44:53.596Z,12.30
2019-05-02T05:46:58.144Z,12.30
2019-05-02T05:49:02.351Z,12.40
2019-05-02T05:51:07.306Z,12.40
2019-05-02T05:53:12.430Z,12.40
2019-05-02T05:55:20.477Z,12.40
2019-05-02T05:57:22.568Z,12.50
2019-05-02T05:59:28.289Z,12.50
2019-05-02T06:01:34.814Z,12.60
2019-05-02T06:03:41.962Z,12.60
2019-05-02T06:05:58.019Z,12.60
2019-05-02T06:08:02.190Z,12.70
2019-05-02T06:10:07.842Z,12.70
2019-05-02T06:12:12.353Z,12.70
2019-05-02T06:14:20.016Z,12.70
2019-05-02T06:16:21.904Z,12.80
2019-05-02T06:18:28.262Z,12.80
2019-05-02T06:20:31.951Z,12.90
2019-05-02T06:22:36.106Z,12.90
2019-05-02T06:24:39.981Z,12.90
2019-05-02T06:26:44.742Z,12.90
2019-05-02T06:28:49.541Z,12.90
2019-05-02T06:30:53.427Z,13.00
2019-05-02T06:32:57.492Z,13.10
2019-05-02T06:35:01.455Z,13.10
2019-05-02T06:37:08.142Z,13.20
2019-05-02T06:39:11.314Z,13.20
2019-05-02T06:41:16.169Z,13.30
2019-05-02T06:43:20.664Z,13.30
2019-05-02T06:45:24.728Z,13.30
2019-05-02T06:47:28.680Z,13.40
2019-05-02T06:49:32.669Z,13.40
2019-05-02T06:51:36.569Z,13.40
2019-05-02T06:53:41.278Z,13.50
2019-05-02T06:55:46.094Z,13.50
2019-05-02T06:57:51.712Z,13.50
2019-05-02T06:59:56.518Z,13.60
2019-05-02T07:02:00.620Z,13.70
2019-05-02T07:04:04.491Z,13.70
2019-05-02T07:06:08.404Z,13.70
2019-05-02T07:08:14.029Z,13.70
2019-05-02T07:10:19.970Z,13.70
2019-05-02T07:12:23.660Z,13.80
2019-05-02T07:14:27.740Z,13.80
2019-05-02T07:16:38.787Z,13.80
2019-05-02T07:18:47.629Z,13.90
2019-05-02T07:20:48.670Z,14.00
2019-05-02T07:22:52.613Z,14.00
2019-05-02T07:24:56.531Z,14.10
2019-05-02T07:27:02.354Z,14.10
2019-05-02T07:29:06.134Z,14.10
2019-05-02T07:31:12.118Z,14.20
2019-05-02T07:33:15.684Z,14.20
2019-05-02T07:35:24.544Z,14.20
2019-05-02T07:37:25.528Z,14.30
2019-05-02T07:39:29.353Z,14.30
2019-05-02T07:41:37.214Z,14.30
2019-05-02T07:43:40.535Z,14.30
2019-05-02T07:45:45.445Z,14.30
2019-05-02T07:47:50.535Z,14.30
2019-05-02T07:49:54.606Z,14.50
2019-05-02T07:51:59.010Z,14.50
2019-05-02T07:54:02.984Z,14.50
2019-05-02T07:56:07.079Z,14.60
2019-05-02T07:58:10.944Z,14.60
2019-05-02T08:00:17.460Z,14.70
2019-05-02T08:02:25.027Z,14.70
2019-05-02T08:04:26.965Z,14.60
2019-05-02T08:06:35.508Z,14.60
2019-05-02T08:08:36.761Z,14.60
2019-05-02T08:10:40.840Z,14.60
2019-05-02T08:12:44.762Z,14.80
2019-05-02T08:14:48.780Z,14.80
2019-05-02T08:17:04.989Z,14.80
2019-05-02T08:19:01.418Z,14.90
2019-05-02T08:21:05.580Z,14.90
2019-05-02T08:23:09.467Z,15.00
2019-05-02T08:25:13.592Z,15.00
2019-05-02T08:27:23.125Z,15.10
2019-05-02T08:29:28.744Z,15.10
2019-05-02T08:31:32.812Z,15.20
2019-05-02T08:33:36.894Z,15.10
2019-05-02T08:35:40.797Z,15.30
2019-05-02T08:37:45.112Z,15.30
2019-05-02T08:39:49.010Z,15.40
2019-05-02T08:41:56.423Z,15.30
2019-05-02T08:43:58.673Z,15.40
2019-05-02T08:46:02.507Z,15.50
2019-05-02T08:48:06.575Z,15.60
2019-05-02T08:50:11.142Z,15.60
2019-05-02T08:52:15.104Z,15.80
2019-05-02T08:54:19.221Z,15.80
2019-05-02T08:56:23.331Z,15.70
2019-05-02T08:58:27.348Z,15.60
2019-05-02T09:00:32.064Z,15.60
2019-05-02T09:02:41.767Z,15.80
2019-05-02T09:04:42.436Z,15.80
2019-05-02T09:06:48.265Z,15.80
2019-05-02T09:08:52.869Z,15.80
2019-05-02T09:10:56.866Z,15.90
2019-05-02T09:13:02.634Z,15.80
2019-05-02T09:15:07.388Z,16.00
2019-05-02T09:17:16.397Z,16.10
2019-05-02T09:19:21.229Z,16.10
2019-05-02T09:21:26.740Z,16.20
2019-05-02T09:23:35.053Z,16.30
2019-05-02T09:25:34.799Z,16.40
2019-05-02T09:27:38.806Z,16.50
2019-05-02T09:29:45.927Z,16.50
2019-05-02T09:31:48.259Z,16.60
2019-05-02T09:33:55.325Z,16.70
2019-05-02T09:35:57.750Z,16.70
2019-05-02T09:38:01.898Z,16.80
2019-05-02T09:40:06.906Z,16.70
2019-05-02T09:42:15.158Z,16.60
2019-05-02T09:44:18.724Z,16.70
2019-05-02T09:46:22.963Z,16.70
2019-05-02T09:48:27.076Z,16.70
2019-05-02T09:50:32.139Z,16.80
2019-05-02T09:52:43.652Z,16.90
2019-05-02T09:54:46.107Z,17.00
2019-05-02T09:56:52.360Z,16.70
2019-05-02T09:59:06.421Z,16.80
2019-05-02T10:01:19.114Z,16.90
2019-05-02T10:03:23.435Z,16.80
2019-05-02T10:05:27.612Z,16.80
2019-05-02T10:07:39.216Z,17.00
2019-05-02T10:09:43.115Z,17.00
2019-05-02T10:11:47.213Z,16.90
2019-05-02T10:13:51.908Z,17.00
2019-05-02T10:15:56.961Z,17.00
2019-05-02T10:18:08.743Z,16.90
2019-05-02T10:20:07.973Z,17.00
2019-05-02T10:22:12.292Z,17.00
2019-05-02T10:24:16.637Z,17.10
2019-05-02T10:26:24.573Z,17.00
2019-05-02T10:28:26.293Z,17.10
2019-05-02T10:30:35.262Z,17.20
2019-05-02T10:32:37.428Z,17.10
2019-05-02T10:34:42.211Z,17.10
2019-05-02T10:36:46.355Z,17.10
2019-05-02T10:38:54.891Z,17.10
2019-05-02T10:41:01.542Z,17.20
2019-05-02T10:43:02.898Z,17.30
2019-05-02T10:45:13.040Z,17.60
2019-05-02T10:47:14.482Z,17.90
2019-05-02T10:49:24.018Z,17.80
2019-05-02T10:51:34.840Z,17.80
2019-05-02T10:53:38.778Z,17.80
2019-05-02T10:55:42.903Z,17.80
2019-05-02T10:57:46.808Z,17.80
2019-05-02T10:59:52.509Z,17.90
2019-05-02T11:02:14.588Z,17.80
2019-05-02T11:04:18.546Z,17.70
2019-05-02T11:06:22.500Z,17.70
2019-05-02T11:08:26.917Z,17.80
2019-05-02T11:10:32.319Z,18.00
2019-05-02T11:12:46.499Z,18.00
2019-05-02T11:14:54.916Z,18.00
2019-05-02T11:17:01.750Z,17.90
2019-05-02T11:19:07.314Z,18.10
2019-05-02T11:21:12.191Z,18.20
2019-05-02T11:23:16.514Z,18.00
2019-05-02T11:25:22.455Z,18.20
2019-05-02T11:27:26.133Z,18.30
2019-05-02T11:29:32.095Z,18.50
2019-05-02T11:31:35.533Z,18.30
2019-05-02T11:33:39.422Z,18.10
2019-05-02T11:35:48.893Z,18.20
2019-05-02T11:37:49.007Z,18.30
2019-05-02T11:39:59.381Z,18.40
2019-05-02T11:41:58.475Z,18.40
2019-05-02T11:44:02.988Z,18.60
2019-05-02T11:46:07.427Z,18.70
2019-05-02T11:48:13.863Z,18.80
2019-05-02T11:50:17.279Z,18.90
2019-05-02T11:52:22.613Z,18.90
2019-05-02T11:54:27.803Z,19.20
2019-05-02T11:56:32.954Z,19.50
2019-05-02T11:58:42.438Z,19.70
2019-05-02T12:00:47.976Z,19.90
2019-05-02T12:02:54.193Z,20.00
2019-05-02T12:04:56.085Z,19.90
2019-05-02T12:07:01.323Z,20.30
2019-05-02T12:09:08.811Z,19.80
2019-05-02T12:11:17.715Z,19.70
2019-05-02T12:13:19.839Z,19.90
2019-05-02T12:15:24.108Z,20.20
2019-05-02T12:17:28.161Z,20.00
2019-05-02T12:19:32.335Z,20.30
2019-05-02T12:21:39.166Z,20.30
2019-05-02T12:23:42.187Z,20.60
2019-05-02T12:25:47.583Z,20.60
2019-05-02T12:27:52.700Z,20.80
2019-05-02T12:29:59.324Z,20.80
2019-05-02T12:32:03.740Z,20.90
2019-05-02T12:34:08.152Z,20.70
2019-05-02T12:36:12.171Z,20.70
2019-05-02T12:38:16.076Z,20.90
2019-05-02T12:40:21.650Z,20.90
2019-05-02T12:42:25.916Z,21.20
2019-05-02T12:44:31.775Z,21.30
2019-05-02T12:46:35.849Z,21.40
2019-05-02T12:48:42.130Z,21.80
2019-05-02T12:50:45.504Z,22.00
2019-05-02T12:52:49.455Z,22.50
2019-05-02T12:54:53.463Z,22.10
2019-05-02T12:56:57.250Z,21.70
2019-05-02T12:59:02.384Z,22.00
2019-05-02T13:01:06.513Z,22.00
2019-05-02T13:03:18.021Z,22.00
2019-05-02T13:05:22.269Z,22.30
2019-05-02T13:07:31.647Z,22.00
2019-05-02T13:09:35.136Z,21.50
2019-05-02T13:11:45.883Z,21.80
2019-05-02T13:13:51.222Z,21.90
2019-05-02T13:15:55.580Z,21.90
2019-05-02T13:17:59.551Z,22.00
2019-05-02T13:20:05.548Z,21.90
2019-05-02T13:22:21.664Z,21.90
2019-05-02T13:24:29.432Z,22.10
2019-05-02T13:26:32.520Z,22.40
2019-05-02T13:28:36.520Z,22.70
2019-05-02T13:30:58.550Z,22.80
2019-05-02T13:33:06.887Z,23.10
2019-05-02T13:35:15.683Z,22.50
2019-05-02T13:37:23.581Z,22.20
2019-05-02T13:39:32.655Z,22.70
2019-05-02T13:41:36.708Z,23.00
2019-05-02T13:43:42.439Z,22.30
2019-05-02T13:46:02.106Z,21.90
2019-05-02T13:48:06.319Z,21.70
2019-05-02T13:50:12.459Z,22.20
2019-05-02T13:52:16.389Z,21.70
2019-05-02T13:54:22.159Z,22.20
2019-05-02T13:56:27.471Z,22.70
2019-05-02T13:58:33.231Z,22.70
2019-05-02T14:00:47.681Z,23.20
2019-05-02T14:02:52.051Z,23.30
2019-05-02T14:04:56.000Z,22.80
2019-05-02T14:07:00.011Z,22.70
2019-05-02T14:09:07.895Z,22.50
2019-05-02T14:11:32.003Z,22.60
2019-05-02T14:13:36.506Z,22.70
2019-05-02T14:15:42.061Z,23.00
2019-05-02T14:17:46.466Z,23.30
2019-05-02T14:19:53.023Z,23.70
2019-05-02T14:21:56.835Z,23.30
2019-05-02T14:24:01.690Z,23.00
2019-05-02T14:26:06.080Z,22.90
2019-05-02T14:28:09.975Z,22.80
2019-05-02T14:30:14.824Z,22.40
2019-05-02T14:32:23.323Z,22.40
2019-05-02T14:34:44.652Z,22.70
2019-05-02T14:36:57.316Z,23.30
2019-05-02T14:39:02.276Z,23.20
2019-05-02T14:41:12.411Z,22.50
2019-05-02T14:43:17.734Z,22.70
2019-05-02T14:45:30.244Z,22.40
2019-05-02T14:47:27.560Z,22.60
2019-05-02T14:49:32.115Z,23.00
2019-05-02T14:51:36.737Z,22.80
2019-05-02T14:53:42.983Z,23.00
2019-05-02T14:55:48.260Z,22.70
2019-05-02T14:57:52.629Z,22.50
2019-05-02T14:59:59.530Z,22.90
2019-05-02T15:02:07.433Z,23.00
2019-05-02T15:04:09.388Z,23.20
2019-05-02T15:06:13.425Z,23.20
2019-05-02T15:08:17.280Z,22.40
2019-05-02T15:10:22.811Z,22.60
2019-05-02T15:12:26.822Z,22.70
2019-05-02T15:14:34.893Z,22.60
2019-05-02T15:16:41.996Z,22.70
2019-05-02T15:18:47.657Z,22.30
2019-05-02T15:20:51.998Z,22.30
2019-05-02T15:22:55.581Z,22.20
2019-05-02T15:24:59.414Z,22.00
2019-05-02T15:27:11.463Z,21.80
2019-05-02T15:29:18.830Z,21.50
2019-05-02T15:31:26.281Z,21.50
2019-05-02T15:33:26.595Z,21.30
2019-05-02T15:35:38.107Z,20.90
2019-05-02T15:37:42.212Z,20.70
2019-05-02T15:41:52.369Z,20.90
2019-05-02T15:43:59.152Z,21.30
2019-05-02T15:46:03.347Z,21.10
2019-05-02T15:48:07.193Z,21.00
2019-05-02T15:50:14.799Z,20.80
2019-05-02T15:52:24.258Z,20.30
2019-05-02T15:54:25.847Z,20.00
2019-05-02T15:56:32.276Z,20.00
2019-05-02T15:58:35.807Z,20.10
2019-05-02T16:00:41.967Z,20.30
2019-05-02T16:02:46.052Z,20.30
2019-05-02T16:04:49.840Z,20.20
2019-05-02T16:06:53.781Z,20.40
2019-05-02T16:08:57.677Z,20.60
2019-05-02T16:11:02.959Z,20.60
2019-05-02T16:13:08.582Z,20.20
2019-05-02T16:15:21.510Z,20.20
2019-05-02T16:17:22.230Z,20.00
2019-05-02T16:19:29.225Z,19.80
2019-05-02T16:21:34.750Z,19.70
2019-05-02T16:23:42.377Z,19.80
2019-05-02T16:25:45.825Z,19.80
2019-05-02T16:27:49.735Z,19.90
2019-05-02T16:29:58.081Z,19.70
2019-05-02T16:32:05.383Z,19.40
2019-05-02T16:34:09.126Z,19.20
2019-05-02T16:36:13.071Z,19.20
2019-05-02T16:38:17.038Z,19.00
2019-05-02T16:40:29.677Z,19.00
2019-05-02T16:42:28.535Z,19.00
2019-05-02T16:44:32.549Z,18.90
2019-05-02T16:46:38.910Z,18.90
2019-05-02T16:48:42.791Z,18.80
2019-05-02T16:50:46.651Z,18.80
2019-05-02T16:52:50.626Z,18.70
2019-05-02T16:54:54.497Z,18.70
2019-05-02T16:56:58.602Z,18.60
2019-05-02T16:59:02.448Z,18.60
2019-05-02T17:01:06.693Z,18.60
2019-05-02T17:03:17.454Z,18.40
2019-05-02T17:05:19.195Z,18.30
2019-05-02T17:07:24.829Z,18.20
2019-05-02T17:09:45.118Z,18.00
2019-05-02T17:11:49.641Z,18.00
2019-05-02T17:13:53.532Z,18.00
2019-05-02T17:15:57.532Z,17.70
2019-05-02T17:18:04.902Z,17.70
2019-05-02T17:20:12.943Z,17.80
2019-05-02T17:22:16.631Z,17.80
2019-05-02T17:24:22.604Z,17.70
2019-05-02T17:26:24.893Z,17.60
2019-05-02T17:28:28.755Z,17.50
2019-05-02T17:30:38.642Z,17.50
2019-05-02T17:32:38.305Z,17.40
2019-05-02T17:34:42.517Z,17.30
2019-05-02T17:36:46.526Z,17.20
2019-05-02T17:38:54.325Z,17.20
2019-05-02T17:40:59.160Z,17.10
2019-05-02T17:43:05.158Z,17.10
2019-05-02T17:45:11.673Z,17.00
2019-05-02T17:47:15.576Z,17.00
2019-05-02T17:49:23.618Z,16.90
2019-05-02T17:51:28.373Z,16.90
2019-05-02T17:53:35.317Z,16.70
2019-05-02T17:55:40.452Z,16.70
2019-05-02T17:57:43.746Z,16.70
2019-05-02T17:59:47.714Z,16.70
2019-05-02T18:01:52.415Z,16.60
2019-05-02T18:03:56.852Z,16.50
2019-05-02T18:06:02.523Z,16.40
2019-05-02T18:08:10.748Z,16.50
2019-05-02T18:10:14.440Z,16.50
2019-05-02T18:12:17.633Z,16.50
2019-05-02T18:14:23.963Z,16.40
2019-05-02T18:16:27.240Z,16.20
2019-05-02T18:18:31.948Z,16.20
2019-05-02T18:20:37.100Z,16.20
2019-05-02T18:22:45.419Z,16.10
2019-05-02T18:24:47.475Z,16.10
2019-05-02T18:26:51.695Z,16.00
2019-05-02T18:28:57.129Z,16.00
2019-05-02T18:31:02.616Z,16.00
2019-05-02T18:33:07.379Z,16.00
2019-05-02T18:35:11.789Z,16.00
2019-05-02T18:37:15.924Z,15.90
2019-05-02T18:39:19.798Z,15.80
2019-05-02T18:41:23.727Z,15.70
2019-05-02T18:43:29.177Z,15.70
2019-05-02T18:45:33.594Z,15.70
2019-05-02T18:47:37.601Z,15.70
2019-05-02T18:49:41.978Z,15.50
2019-05-02T18:51:48.359Z,15.60
2019-05-02T18:53:52.949Z,15.50
2019-05-02T18:56:01.499Z,15.40
2019-05-02T18:58:05.416Z,15.30
2019-05-02T19:00:09.627Z,15.30
2019-05-02T19:02:13.859Z,15.30
2019-05-02T19:04:17.888Z,15.30
2019-05-02T19:06:22.116Z,15.30
2019-05-02T19:08:31.130Z,15.20
2019-05-02T19:10:44.679Z,15.20
2019-05-02T19:12:43.421Z,15.10
2019-05-02T19:14:47.248Z,15.10
2019-05-02T19:16:52.091Z,15.00
2019-05-02T19:18:57.529Z,15.00
2019-05-02T19:21:03.334Z,14.90
2019-05-02T19:23:07.363Z,14.80
2019-05-02T19:25:12.112Z,14.80
2019-05-02T19:27:20.969Z,14.70
2019-05-02T19:29:24.828Z,14.60
2019-05-02T19:31:31.942Z,14.60
2019-05-02T19:33:37.388Z,14.50
2019-05-02T19:35:43.274Z,14.50
2019-05-02T19:37:47.816Z,14.50
2019-05-02T19:39:52.478Z,14.50
2019-05-02T19:41:56.552Z,14.40
2019-05-02T19:44:02.194Z,14.40
2019-05-02T19:46:06.579Z,14.30
2019-05-02T19:48:12.411Z,14.30
2019-05-02T19:50:35.769Z,14.40
2019-05-02T19:52:40.305Z,14.40
2019-05-02T19:54:43.688Z,14.30
2019-05-02T19:56:47.799Z,14.30
2019-05-02T19:58:52.159Z,14.30
2019-05-02T20:00:56.955Z,14.20
2019-05-02T20:03:01.830Z,14.10
2019-05-02T20:05:06.722Z,14.10
2019-05-02T20:07:12.387Z,14.10
2019-05-02T20:09:16.467Z,14.10
2019-05-02T20:11:21.935Z,14.00
2019-05-02T20:13:30.559Z,14.00
2019-05-02T20:15:33.094Z,13.90
2019-05-02T20:17:37.158Z,13.90
2019-05-02T20:19:42.646Z,13.80
2019-05-02T20:21:48.089Z,13.70
2019-05-02T20:23:52.098Z,13.70
2019-05-02T20:25:56.103Z,13.70
2019-05-02T20:28:01.876Z,13.60
2019-05-02T20:30:11.882Z,13.50
2019-05-02T20:32:15.296Z,13.60
2019-05-02T20:34:19.304Z,13.60
2019-05-02T20:36:23.412Z,13.50
2019-05-02T20:38:27.303Z,13.60
2019-05-02T20:40:32.684Z,13.50
2019-05-02T20:42:36.769Z,13.50
2019-05-02T20:44:41.879Z,13.40
2019-05-02T20:46:46.368Z,13.30
2019-05-02T20:48:52.613Z,13.30
2019-05-02T20:50:56.633Z,13.30
2019-05-02T20:53:01.953Z,13.40
2019-05-02T20:55:07.212Z,13.30
2019-05-02T20:57:11.974Z,13.20
2019-05-02T20:59:16.036Z,13.00
2019-05-02T21:01:19.902Z,13.00
2019-05-02T21:03:23.746Z,13.10
2019-05-02T21:05:45.674Z,13.00
2019-05-02T21:07:52.530Z,13.00
2019-05-02T21:09:58.039Z,13.00
2019-05-02T21:12:06.322Z,13.10
2019-05-02T21:14:12.195Z,13.10
2019-05-02T21:16:15.723Z,13.00
2019-05-02T21:18:19.599Z,13.00
2019-05-02T21:20:23.584Z,12.90
2019-05-02T21:22:29.263Z,12.90
2019-05-02T21:24:33.142Z,12.90
2019-05-02T21:26:37.054Z,12.90
2019-05-02T21:28:43.050Z,12.80
2019-05-02T21:30:49.011Z,12.80
2019-05-02T21:32:52.871Z,12.80
2019-05-02T21:34:56.786Z,12.90
2019-05-02T21:37:02.395Z,12.90
2019-05-02T21:39:09.083Z,12.80
2019-05-02T21:41:13.631Z,12.80
2019-05-02T21:43:17.522Z,12.70
2019-05-02T21:45:22.286Z,12.70
2019-05-02T21:47:26.279Z,12.70
2019-05-02T21:49:48.019Z,12.70
2019-05-02T21:51:53.489Z,12.70
2019-05-02T21:53:58.911Z,12.70
2019-05-02T21:56:17.507Z,12.60
2019-05-02T21:58:21.639Z,12.60
2019-05-02T22:00:37.769Z,12.50
2019-05-02T22:02:41.729Z,12.40
2019-05-02T22:04:45.702Z,12.40
2019-05-02T22:06:49.709Z,12.40
2019-05-02T22:08:53.843Z,12.40
2019-05-02T22:10:57.739Z,12.30
2019-05-02T22:13:02.139Z,12.40
2019-05-02T22:15:06.388Z,12.30
2019-05-02T22:17:10.428Z,12.30
2019-05-02T22:19:14.918Z,12.20
2019-05-02T22:21:18.834Z,12.20
2019-05-02T22:23:22.832Z,12.10
2019-05-02T22:25:26.686Z,12.10
2019-05-02T22:27:32.364Z,12.20
2019-05-02T22:29:36.230Z,12.20
2019-05-02T22:31:40.075Z,12.00
2019-05-02T22:33:44.659Z,12.00
2019-05-02T22:35:48.719Z,11.90
2019-05-02T22:37:54.265Z,11.90
2019-05-02T22:40:03.473Z,11.90
2019-05-02T22:42:05.414Z,11.90
2019-05-02T22:44:09.411Z,11.90
2019-05-02T22:46:14.882Z,11.90
2019-05-02T22:48:18.713Z,11.90
2019-05-02T22:50:22.662Z,11.70
2019-05-02T22:52:26.722Z,11.60
2019-05-02T22:54:33.602Z,11.50
2019-05-02T22:56:36.289Z,11.60
2019-05-02T22:58:42.022Z,11.60
2019-05-02T23:00:46.146Z,11.50
2019-05-02T23:02:49.991Z,11.50
2019-05-02T23:04:53.923Z,11.50
2019-05-02T23:06:57.947Z,11.50
2019-05-02T23:09:02.020Z,11.50
2019-05-02T23:11:06.055Z,11.50
2019-05-02T23:13:09.909Z,11.40
2019-05-02T23:15:16.900Z,11.20
2019-05-02T23:17:22.999Z,11.20
2019-05-02T23:19:26.263Z,11.30
2019-05-02T23:21:32.369Z,11.30
2019-05-02T23:23:36.297Z,11.30
2019-05-02T23:25:47.854Z,11.30
2019-05-02T23:27:53.523Z,11.20
2019-05-02T23:29:57.409Z,11.20
2019-05-02T23:32:02.353Z,11.10
2019-05-02T23:34:06.499Z,11.00
2019-05-02T23:36:10.319Z,10.90
2019-05-02T23:38:14.232Z,11.00
2019-05-02T23:40:18.176Z,10.90
2019-05-02T23:42:22.038Z,11.00
2019-05-02T23:44:25.895Z,11.00
2019-05-02T23:46:29.816Z,11.00
2019-05-02T23:48:33.869Z,11.00
2019-05-02T23:50:38.183Z,11.00
2019-05-02T23:52:42.192Z,11.00
2019-05-02T23:54:51.706Z,10.90
2019-05-02T23:56:51.743Z,10.80
2019-05-02T23:58:55.648Z,10.80
